Terminal Aerodrome Forecast
Issued by NWS Charleston, WV

Current Version | Previous Version | Text Only | Print | Product List | Glossary Off
Versions: 1 2 3 4 5 6 7 8 9 10 11 12 13 14 15 16 17 18 19 20 21 22 23 24 25 26 27 28

000
FTUS41 KRLX 250500
TAFPKB
TAF
KPKB 250537Z 2506/2606 00000KT P6SM SCT250
     FM251100 VRB03KT 6SM BR BKN250
     FM251200 VRB03KT 5SM BR SCT040
     FM251300 22003KT 6SM BR SCT040
     FM251400 VRB03KT P6SM SCT040
     FM251700 22007KT P6SM BKN035
     FM260200 26006KT P6SM SCT035
     FM260300 27005KT P6SM BKN250=

USA.gov is the U.S. government's official web portal to all federal, state and local government web resources and services.